OEDR

Dhahran

Airport
ICAO code
OEDR
Summary
ICAO Region
MID
ICAO Territory
Location

Dhahran,

Coordinates
26° 15' 55" N , 50° 9' 7" E
KCC
Metar
Observation
OEDR 271300Z 33015KT 9999 FEW040 20/02 Q1018
Station
Dhahran
Date/Time
2023-01-27 13:00:00
Wind direction
330°
Wind speed
15 kts
Lowest cloud amount
few clouds
Temperature
20°C
Dew point
2°C
Humidity
30%
QNH
1018 hPa
Weather condition
n/a

Description

Dhahran International Airport in Dhahran formerly served the Ash Sharqiyah Province (Eastern Province) in Saudi Arabia. In 1999, after the opening of King Fahd International Airport, all scheduled flights were shifted out of Dhahran and the airport now serves as the King Abdulaziz Air Base of the Royal Saudi Air Force.

Climatology

Hot Desert Climate (Köppen climate classification BWh) - Hot desert climates are typically found in the subtropics where there is unbroken sunshine for the whole year due to the stable descending air and high pressure, little or no precipitation. Maximum temperatures of 40°C to 45°C are not uncommon, particularly during the warmer months of the year. During colder periods of the year, night-time temperatures can drop to freezing or below due to the exceptional radiation loss under the clear skies. However, very rarely do temperatures drop far below freezing.

Runways

Designator Length Width Surface Rops
16L/34R 3600 45 ASP Yes/Yes
16R/34L 3660 45 ASP Yes/Yes

Airport map

Aerial View

SKYbrary Partners:

Safety knowledge contributed by: